Time;durP1;ratioP1;P1;durP2;ratioP2;P2;SDS_P1;SDS_P2;PMS_P1;PMS_P2;Temp;Humidity;BMP_temperature;BMP_pressure;BME280_temperature;BME280_humidity;BME280_pressure;Samples;Min_cycle;Max_cycle;Signal;HPM_P1;HPM_P2
2023/03/31 00:00:56;;;;;;;26.33;12.52;;;;;;;;;;4946319;28;20073;-76
2023/03/31 00:03:24;;;;;;;28.00;12.77;;;;;;;;;;4953656;28;20061;-75
2023/03/31 00:06:00;;;;;;;24.30;12.73;;;;;;;;;;4952098;28;20379;-76
2023/03/31 00:08:34;;;;;;;22.27;11.45;;;;;;;;;;4943935;28;20046;-75
2023/03/31 00:11:03;;;;;;;23.75;12.00;;;;;;;;;;4940330;28;20777;-74
2023/03/31 00:13:31;;;;;;;26.05;11.55;;;;;;;;;;4953976;28;20031;-65
2023/03/31 00:16:00;;;;;;;23.58;12.57;;;;;;;;;;4953947;28;20121;-77
2023/03/31 00:18:28;;;;;;;21.15;11.70;;;;;;;;;;4940735;28;20049;-72
2023/03/31 00:21:05;;;;;;;27.83;11.55;;;;;;;;;;4955327;28;22003;-75
2023/03/31 00:23:34;;;;;;;23.27;12.23;;;;;;;;;;4957660;28;20046;-75
2023/03/31 00:26:02;;;;;;;22.25;12.10;;;;;;;;;;4954696;28;20430;-75
2023/03/31 00:28:28;;;;;;;22.60;11.18;;;;;;;;;;4945850;28;20034;-74
2023/03/31 00:30:55;;;;;;;;;;;;;;;;;;4951675;28;20033;-72
2023/03/31 00:33:24;;;;;;;21.08;11.40;;;;;;;;;;4937705;28;19918;-74
2023/03/31 00:35:54;;;;;;;22.67;11.80;;;;;;;;;;4954079;28;20504;-73
2023/03/31 00:38:21;;;;;;;25.75;12.50;;;;;;;;;;4957312;28;20045;-75
2023/03/31 00:40:50;;;;;;;32.33;11.90;;;;;;;;;;4955030;28;20670;-72
2023/03/31 00:43:31;;;;;;;26.15;12.00;;;;;;;;;;4956036;28;20034;-71
2023/03/31 00:46:03;;;;;;;24.70;12.73;;;;;;;;;;4955181;28;20035;-75
2023/03/31 00:48:32;;;;;;;27.52;12.85;;;;;;;;;;4940383;28;20133;-74
2023/03/31 00:51:00;;;;;;;25.50;12.20;;;;;;;;;;4932388;28;20034;-72
2023/03/31 00:53:30;;;;;;;21.25;11.32;;;;;;;;;;4941646;28;20043;-73
2023/03/31 00:56:02;;;;;;;22.70;11.43;;;;;;;;;;4929791;28;20026;-75
2023/03/31 00:58:42;;;;;;;24.13;10.15;;;;;;;;;;4950639;28;20481;-77
2023/03/31 01:01:23;;;;;;;25.20;10.93;;;;;;;;;;4938171;28;20563;-72
2023/03/31 01:03:50;;;;;;;24.17;9.35;;;;;;;;;;4947753;28;20563;-80
2023/03/31 01:06:22;;;;;;;26.42;9.60;;;;;;;;;;4936070;28;20041;-80
2023/03/31 01:08:55;;;;;;;24.40;10.52;;;;;;;;;;4934570;28;20030;-80
2023/03/31 01:11:25;;;;;;;27.13;11.00;;;;;;;;;;4953332;28;20076;-80
2023/03/31 01:13:55;;;;;;;22.05;10.07;;;;;;;;;;4923179;28;20038;-79
2023/03/31 01:16:22;;;;;;;22.23;9.55;;;;;;;;;;4936047;28;20035;-79
2023/03/31 01:18:50;;;;;;;24.73;9.82;;;;;;;;;;4952924;28;20589;-79
2023/03/31 01:21:36;;;;;;;27.33;11.05;;;;;;;;;;4951223;28;20045;-79
2023/03/31 01:24:38;;;;;;;31.65;10.50;;;;;;;;;;4940967;28;20522;-81
2023/03/31 01:27:28;;;;;;;24.63;9.15;;;;;;;;;;4963400;28;20041;-79
2023/03/31 01:30:14;;;;;;;32.17;11.60;;;;;;;;;;4949767;28;20103;-78
2023/03/31 01:32:41;;;;;;;35.42;12.35;;;;;;;;;;4961054;28;20448;-80
2023/03/31 01:35:42;;;;;;;32.45;12.98;;;;;;;;;;4965471;28;20031;-79
2023/03/31 01:38:28;;;;;;;38.83;14.73;;;;;;;;;;4897410;28;20283;-78
2023/03/31 01:41:00;;;;;;;30.88;14.43;;;;;;;;;;4953287;28;22027;-79
2023/03/31 01:43:45;;;;;;;32.92;15.30;;;;;;;;;;4954877;28;20597;-79
2023/03/31 01:46:29;;;;;;;35.20;15.63;;;;;;;;;;4960720;28;20045;-80
2023/03/31 01:49:18;;;;;;;35.20;16.52;;;;;;;;;;4951527;28;20037;-79
2023/03/31 01:52:18;;;;;;;35.83;16.77;;;;;;;;;;4933418;28;20047;-79
2023/03/31 01:54:56;;;;;;;37.83;17.05;;;;;;;;;;4871668;29;20052;-79
2023/03/31 01:57:34;;;;;;;37.42;17.15;;;;;;;;;;4868199;29;20047;-79
2023/03/31 02:00:17;;;;;;;39.70;16.63;;;;;;;;;;4878151;29;20380;-79
2023/03/31 02:02:54;;;;;;;37.85;16.13;;;;;;;;;;4875748;29;20111;-79
2023/03/31 02:05:22;;;;;;;;;;;;;;;;;;4875484;29;20079;-79
2023/03/31 02:08:06;;;;;;;37.92;16.88;;;;;;;;;;4863049;29;20678;-80
2023/03/31 02:10:36;;;;;;;39.30;18.08;;;;;;;;;;4882601;29;20593;-80
2023/03/31 02:13:13;;;;;;;32.88;16.52;;;;;;;;;;4877863;29;20148;-79
2023/03/31 02:15:46;;;;;;;38.90;16.88;;;;;;;;;;4875707;29;20063;-80
2023/03/31 02:18:17;;;;;;;41.90;17.48;;;;;;;;;;4852485;29;20055;-79
2023/03/31 02:20:58;;;;;;;38.45;17.67;;;;;;;;;;4870674;29;20055;-79
2023/03/31 02:23:30;;;;;;;40.00;17.63;;;;;;;;;;4880865;29;20535;-79
2023/03/31 02:26:01;;;;;;;36.20;17.58;;;;;;;;;;4875098;29;20072;-80
2023/03/31 02:28:29;;;;;;;36.30;18.20;;;;;;;;;;4881133;29;20346;-82
2023/03/31 02:31:15;;;;;;;39.67;18.73;;;;;;;;;;4916284;28;20153;-80
2023/03/31 02:33:41;;;;;;;35.10;16.30;;;;;;;;;;4956484;28;20022;-80
2023/03/31 02:36:09;;;;;;;;;;;;;;;;;;4957628;28;20029;-80
2023/03/31 02:38:38;;;;;;;36.03;16.63;;;;;;;;;;4937679;28;19914;-79
2023/03/31 02:41:06;;;;;;;37.30;16.60;;;;;;;;;;4955067;28;20035;-80
2023/03/31 02:43:34;;;;;;;36.67;15.88;;;;;;;;;;4958755;28;20051;-80
2023/03/31 02:46:03;;;;;;;39.80;17.63;;;;;;;;;;4938909;28;20943;-80
2023/03/31 02:48:34;;;;;;;44.25;16.48;;;;;;;;;;4953253;28;20392;-81
2023/03/31 02:51:11;;;;;;;46.75;17.75;;;;;;;;;;4952610;28;20088;-80
2023/03/31 02:53:38;;;;;;;;;;;;;;;;;;4954304;28;20559;-80
2023/03/31 02:56:23;;;;;;;39.15;16.65;;;;;;;;;;4955137;28;20044;-80
2023/03/31 02:59:11;;;;;;;34.90;15.80;;;;;;;;;;4952413;28;20066;-80
2023/03/31 03:01:56;;;;;;;38.85;15.85;;;;;;;;;;4953078;28;20042;-80
2023/03/31 03:04:41;;;;;;;39.95;16.80;;;;;;;;;;4956749;28;21191;-79
2023/03/31 03:07:11;;;;;;;35.92;14.07;;;;;;;;;;4956543;28;20077;-79
2023/03/31 03:09:59;;;;;;;39.42;15.43;;;;;;;;;;4949990;28;20034;-79
2023/03/31 03:12:46;;;;;;;34.60;14.98;;;;;;;;;;4956618;28;20026;-79
2023/03/31 03:15:40;;;;;;;35.45;15.77;;;;;;;;;;4955257;28;20181;-81
2023/03/31 03:18:07;;;;;;;35.85;13.55;;;;;;;;;;4941312;28;20030;-79
2023/03/31 03:20:34;;;;;;;35.85;15.32;;;;;;;;;;4952247;28;20065;-79
2023/03/31 03:23:02;;;;;;;33.67;14.95;;;;;;;;;;4956854;28;20034;-79
2023/03/31 03:25:31;;;;;;;39.22;15.57;;;;;;;;;;4954774;28;20097;-79
2023/03/31 03:28:00;;;;;;;33.20;15.30;;;;;;;;;;4950934;28;20031;-79
2023/03/31 03:30:26;;;;;;;35.67;15.40;;;;;;;;;;4935042;28;20058;-79
2023/03/31 03:32:54;;;;;;;35.78;15.30;;;;;;;;;;4950028;28;20045;-80
2023/03/31 03:35:23;;;;;;;40.08;16.17;;;;;;;;;;4937210;28;20031;-80
2023/03/31 03:37:50;;;;;;;42.35;15.63;;;;;;;;;;4937840;28;20065;-79
2023/03/31 03:40:18;;;;;;;46.45;16.02;;;;;;;;;;4955027;28;20109;-80
2023/03/31 03:42:46;;;;;;;40.85;16.77;;;;;;;;;;4954566;28;20038;-80
2023/03/31 03:45:13;;;;;;;38.97;14.80;;;;;;;;;;4942657;28;20513;-79
2023/03/31 03:47:42;;;;;;;41.20;15.85;;;;;;;;;;4949984;28;20027;-80
2023/03/31 03:50:10;;;;;;;32.17;14.90;;;;;;;;;;4957519;28;20038;-79
2023/03/31 03:52:38;;;;;;;31.65;14.50;;;;;;;;;;4922159;28;20038;-80
2023/03/31 03:55:06;;;;;;;32.22;14.27;;;;;;;;;;4955825;28;20812;-80
2023/03/31 03:57:33;;;;;;;35.42;14.88;;;;;;;;;;4954097;28;20485;-79
2023/03/31 04:00:07;;;;;;;32.67;15.52;;;;;;;;;;4938986;28;20035;-79
2023/03/31 04:02:38;;;;;;;30.27;14.07;;;;;;;;;;4958644;28;20035;-79
2023/03/31 04:05:06;;;;;;;32.22;13.32;;;;;;;;;;4945193;28;20262;-80
2023/03/31 04:07:35;;;;;;;27.30;12.73;;;;;;;;;;4938861;28;20030;-80
2023/03/31 04:10:02;;;;;;;28.48;12.63;;;;;;;;;;4956841;28;20030;-79
2023/03/31 04:12:29;;;;;;;26.50;14.18;;;;;;;;;;4939941;28;20117;-79
2023/03/31 04:14:58;;;;;;;26.60;12.85;;;;;;;;;;4950122;28;20405;-82
2023/03/31 04:17:33;;;;;;;26.83;13.20;;;;;;;;;;4953839;28;20042;-80
2023/03/31 04:20:08;;;;;;;29.77;12.77;;;;;;;;;;4949891;28;20718;-80
2023/03/31 04:22:39;;;;;;;25.58;11.90;;;;;;;;;;4944317;28;20319;-80
2023/03/31 04:25:09;;;;;;;25.33;11.57;;;;;;;;;;4938997;28;20117;-80
2023/03/31 04:27:37;;;;;;;24.20;10.23;;;;;;;;;;4952135;28;20082;-80
2023/03/31 04:30:07;;;;;;;22.08;10.20;;;;;;;;;;4956174;28;20031;-81
2023/03/31 04:32:35;;;;;;;18.85;9.10;;;;;;;;;;4948559;28;20350;-81
2023/03/31 04:35:05;;;;;;;20.20;9.63;;;;;;;;;;4955024;28;20026;-80
2023/03/31 04:37:33;;;;;;;20.80;9.30;;;;;;;;;;4956437;28;20348;-80
2023/03/31 04:40:08;;;;;;;20.98;9.73;;;;;;;;;;4952857;28;20102;-80
2023/03/31 04:42:35;;;;;;;23.08;10.27;;;;;;;;;;4955101;28;20038;-80
2023/03/31 04:45:05;;;;;;;21.58;10.25;;;;;;;;;;4952824;28;20472;-80
2023/03/31 04:47:38;;;;;;;23.48;10.05;;;;;;;;;;4954741;28;20043;-80
2023/03/31 04:50:06;;;;;;;24.27;9.43;;;;;;;;;;4953059;28;20033;-80
2023/03/31 04:52:33;;;;;;;22.73;7.75;;;;;;;;;;4955465;28;20582;-80
2023/03/31 04:55:03;;;;;;;21.52;7.43;;;;;;;;;;4953344;28;20409;-80
2023/03/31 04:57:30;;;;;;;19.52;7.22;;;;;;;;;;4954308;28;20034;-79
2023/03/31 04:59:58;;;;;;;24.23;7.32;;;;;;;;;;4951596;28;20593;-80
2023/03/31 05:02:25;;;;;;;22.02;6.50;;;;;;;;;;4935592;28;20038;-80
2023/03/31 05:04:54;;;;;;;19.30;5.68;;;;;;;;;;4935932;28;20050;-80
2023/03/31 05:07:22;;;;;;;21.15;5.80;;;;;;;;;;4954550;28;20110;-82
2023/03/31 05:09:53;;;;;;;22.30;6.20;;;;;;;;;;4935570;28;20047;-78
2023/03/31 05:12:20;;;;;;;23.08;6.05;;;;;;;;;;4952926;28;20671;-78
2023/03/31 05:14:47;;;;;;;20.83;5.68;;;;;;;;;;4952070;28;20415;-80
2023/03/31 05:17:16;;;;;;;18.30;5.45;;;;;;;;;;4960240;28;20038;-79
2023/03/31 05:19:44;;;;;;;19.48;5.10;;;;;;;;;;4957422;28;20317;-80
2023/03/31 05:22:12;;;;;;;22.15;5.95;;;;;;;;;;4959025;28;20350;-80
2023/03/31 05:24:39;;;;;;;19.48;4.93;;;;;;;;;;4936362;28;20030;-80
2023/03/31 05:27:06;;;;;;;21.77;4.90;;;;;;;;;;4940813;28;20462;-79
2023/03/31 05:29:34;;;;;;;17.88;4.57;;;;;;;;;;4961904;28;20041;-79
2023/03/31 05:32:02;;;;;;;17.48;6.97;;;;;;;;;;4958177;28;20057;-82
2023/03/31 05:34:29;;;;;;;22.52;9.43;;;;;;;;;;4938721;28;20474;-80
2023/03/31 05:36:57;;;;;;;23.67;9.50;;;;;;;;;;4955059;28;20699;-79
2023/03/31 05:39:25;;;;;;;21.67;7.38;;;;;;;;;;4956177;28;20069;-80
2023/03/31 05:41:52;;;;;;;17.23;5.90;;;;;;;;;;4936746;28;20046;-78
2023/03/31 05:44:20;;;;;;;17.35;5.22;;;;;;;;;;4956859;28;20054;-80
2023/03/31 05:46:48;;;;;;;18.75;5.05;;;;;;;;;;4952915;28;20121;-81
2023/03/31 05:49:16;;;;;;;29.65;6.32;;;;;;;;;;4960134;28;20031;-80
2023/03/31 05:51:46;;;;;;;23.00;5.47;;;;;;;;;;4955797;28;20487;-80
2023/03/31 05:54:15;;;;;;;28.77;6.05;;;;;;;;;;4958417;28;20217;-80
2023/03/31 05:56:42;;;;;;;17.55;4.40;;;;;;;;;;4956585;28;20301;-80
2023/03/31 05:59:10;;;;;;;17.23;3.83;;;;;;;;;;4959858;28;20658;-80
2023/03/31 06:01:37;;;;;;;15.80;3.63;;;;;;;;;;4948526;28;20039;-81
2023/03/31 06:04:05;;;;;;;17.48;3.83;;;;;;;;;;4952908;28;20053;-80
2023/03/31 06:06:33;;;;;;;16.05;3.67;;;;;;;;;;4939918;28;20030;-81
2023/03/31 06:09:02;;;;;;;25.50;4.60;;;;;;;;;;4957758;28;20042;-80
2023/03/31 06:11:31;;;;;;;19.33;4.20;;;;;;;;;;4936323;28;20058;-80
2023/03/31 06:13:59;;;;;;;16.75;3.95;;;;;;;;;;4936758;28;20030;-82
2023/03/31 06:16:28;;;;;;;19.05;4.40;;;;;;;;;;4962726;28;20119;-81
2023/03/31 06:18:58;;;;;;;16.88;4.28;;;;;;;;;;4952043;28;20101;-79
2023/03/31 06:21:24;;;;;;;21.50;5.05;;;;;;;;;;4938053;28;20066;-82
2023/03/31 06:23:54;;;;;;;;;;;;;;;;;;4951980;28;20042;-80
2023/03/31 06:26:22;;;;;;;16.38;4.05;;;;;;;;;;4962365;28;19921;-80
2023/03/31 06:28:51;;;;;;;22.00;5.53;;;;;;;;;;4959701;28;20708;-80
2023/03/31 06:31:19;;;;;;;18.70;4.45;;;;;;;;;;4944253;28;20038;-81
2023/03/31 06:33:49;;;;;;;24.55;4.82;;;;;;;;;;4942668;28;20117;-82
2023/03/31 06:36:16;;;;;;;26.48;5.60;;;;;;;;;;4960490;28;20073;-80
2023/03/31 06:38:44;;;;;;;24.30;4.85;;;;;;;;;;4942255;28;20115;-81
2023/03/31 06:41:13;;;;;;;23.42;4.30;;;;;;;;;;4964707;28;21040;-80
2023/03/31 06:43:40;;;;;;;19.70;4.22;;;;;;;;;;4937993;28;20022;-80
2023/03/31 06:46:10;;;;;;;25.85;4.80;;;;;;;;;;4959905;28;20075;-80
2023/03/31 06:48:38;;;;;;;19.75;5.20;;;;;;;;;;4960191;28;20112;-81
2023/03/31 06:51:06;;;;;;;21.38;5.25;;;;;;;;;;4964542;28;20884;-82
2023/03/31 06:53:35;;;;;;;21.02;5.97;;;;;;;;;;4955794;28;20151;-80
2023/03/31 06:56:05;;;;;;;26.48;5.97;;;;;;;;;;4943158;28;20054;-80
2023/03/31 06:58:37;;;;;;;16.33;5.13;;;;;;;;;;4963368;28;20030;-81
2023/03/31 07:01:06;;;;;;;16.92;5.38;;;;;;;;;;4956389;28;20347;-81
2023/03/31 07:03:44;;;;;;;19.10;5.80;;;;;;;;;;4954996;28;20713;-80
2023/03/31 07:06:11;;;;;;;22.35;5.40;;;;;;;;;;4961567;28;20046;-80
2023/03/31 07:08:40;;;;;;;21.23;6.32;;;;;;;;;;4959035;28;20069;-82
2023/03/31 07:11:06;;;;;;;18.02;6.05;;;;;;;;;;4960821;28;20563;-81
2023/03/31 07:13:35;;;;;;;15.82;5.63;;;;;;;;;;4963142;28;20031;-81
2023/03/31 07:16:03;;;;;;;15.68;6.32;;;;;;;;;;4969327;28;20411;-82
2023/03/31 07:18:31;;;;;;;22.67;5.68;;;;;;;;;;4960391;28;20085;-81
2023/03/31 07:21:00;;;;;;;26.80;5.93;;;;;;;;;;4961971;28;20034;-81
2023/03/31 07:23:28;;;;;;;29.60;6.35;;;;;;;;;;4960828;28;20165;-81
2023/03/31 07:26:00;;;;;;;23.38;6.50;;;;;;;;;;4957991;28;20038;-82
2023/03/31 07:28:31;;;;;;;22.13;6.68;;;;;;;;;;4962459;28;20484;-81
2023/03/31 07:30:59;;;;;;;27.05;7.13;;;;;;;;;;4940642;28;20031;-82
2023/03/31 07:33:28;;;;;;;32.00;10.10;;;;;;;;;;4946876;28;20035;-80
2023/03/31 07:35:56;;;;;;;27.77;8.88;;;;;;;;;;4960417;28;20356;-80
2023/03/31 07:38:23;;;;;;;25.95;6.70;;;;;;;;;;4958494;28;20554;-80
2023/03/31 07:40:49;;;;;;;19.83;6.13;;;;;;;;;;4955007;28;20047;-81
2023/03/31 07:43:18;;;;;;;17.13;5.55;;;;;;;;;;4948325;28;20034;-80
2023/03/31 07:45:46;;;;;;;20.17;6.20;;;;;;;;;;4965507;28;20038;-80
2023/03/31 07:48:13;;;;;;;23.90;6.05;;;;;;;;;;4966596;28;20018;-81
2023/03/31 07:50:42;;;;;;;17.67;5.55;;;;;;;;;;4968912;28;20110;-80
2023/03/31 07:53:08;;;;;;;18.10;5.47;;;;;;;;;;4947529;28;20030;-81
2023/03/31 07:55:37;;;;;;;19.58;5.03;;;;;;;;;;4973769;28;20065;-80
2023/03/31 07:58:05;;;;;;;15.15;4.75;;;;;;;;;;4967002;28;20350;-81
2023/03/31 08:00:35;;;;;;;20.77;5.88;;;;;;;;;;4979214;28;20564;-80
2023/03/31 08:03:10;;;;;;;15.02;4.95;;;;;;;;;;4963245;28;20047;-80
2023/03/31 08:05:39;;;;;;;18.73;5.90;;;;;;;;;;4962620;28;20390;-81
2023/03/31 08:08:07;;;;;;;19.90;5.50;;;;;;;;;;4966435;28;20022;-81
2023/03/31 08:10:36;;;;;;;17.17;5.47;;;;;;;;;;4975331;28;20651;-81
2023/03/31 08:13:05;;;;;;;26.15;5.88;;;;;;;;;;4958552;28;20027;-80
2023/03/31 08:15:32;;;;;;;16.60;5.55;;;;;;;;;;4959318;28;20069;-81
2023/03/31 08:18:01;;;;;;;21.13;5.68;;;;;;;;;;4956202;28;20113;-81
2023/03/31 08:20:29;;;;;;;21.98;6.45;;;;;;;;;;4958555;28;20062;-82
2023/03/31 08:22:56;;;;;;;21.73;6.28;;;;;;;;;;4956879;28;21574;-81
2023/03/31 08:25:25;;;;;;;17.80;5.15;;;;;;;;;;4955111;28;20584;-80
2023/03/31 08:27:53;;;;;;;13.30;4.30;;;;;;;;;;4942203;28;20027;-81
2023/03/31 08:30:19;;;;;;;16.65;4.22;;;;;;;;;;4937480;28;20042;-81
2023/03/31 08:32:48;;;;;;;15.02;4.03;;;;;;;;;;4938520;28;20041;-81
2023/03/31 08:35:16;;;;;;;10.57;3.05;;;;;;;;;;4962825;28;20038;-81
2023/03/31 08:37:44;;;;;;;11.32;2.67;;;;;;;;;;4934580;28;20372;-80
2023/03/31 08:40:18;;;;;;;7.60;2.10;;;;;;;;;;4959258;28;20034;-81
2023/03/31 08:42:58;;;;;;;13.43;2.88;;;;;;;;;;4941269;28;20145;-81
2023/03/31 08:45:34;;;;;;;9.27;2.60;;;;;;;;;;4958149;28;20031;-81
2023/03/31 08:48:16;;;;;;;9.20;2.60;;;;;;;;;;4943379;28;20455;-81
2023/03/31 08:50:52;;;;;;;9.32;2.72;;;;;;;;;;4956484;28;20137;-81
2023/03/31 08:53:19;;;;;;;12.43;4.27;;;;;;;;;;4944502;28;20346;-81
2023/03/31 08:55:53;;;;;;;10.40;2.50;;;;;;;;;;4959100;28;20026;-80
2023/03/31 08:58:39;;;;;;;8.25;1.90;;;;;;;;;;4929215;28;20121;-80
2023/03/31 09:01:15;;;;;;;9.90;1.83;;;;;;;;;;4957972;28;20179;-81
2023/03/31 09:04:01;;;;;;;11.38;1.67;;;;;;;;;;4956955;28;20058;-81
2023/03/31 09:06:46;;;;;;;8.98;1.73;;;;;;;;;;4961346;28;20117;-81
2023/03/31 09:09:44;;;;;;;7.53;1.65;;;;;;;;;;4962560;28;20106;-80
2023/03/31 09:12:35;;;;;;;8.73;1.88;;;;;;;;;;4943839;28;20093;-80
2023/03/31 09:15:10;;;;;;;9.43;1.70;;;;;;;;;;4960698;28;20035;-80
2023/03/31 09:17:45;;;;;;;10.25;1.58;;;;;;;;;;4942899;28;20049;-81
2023/03/31 09:20:13;;;;;;;9.07;1.75;;;;;;;;;;4951697;28;20433;-80
2023/03/31 09:22:46;;;;;;;7.40;1.65;;;;;;;;;;4952486;28;20038;-81
2023/03/31 09:25:43;;;;;;;7.57;1.70;;;;;;;;;;4943612;28;20571;-81
2023/03/31 09:28:20;;;;;;;7.90;1.67;;;;;;;;;;4943023;28;20026;-80
2023/03/31 09:30:50;;;;;;;8.02;1.80;;;;;;;;;;4941990;28;20555;-81
2023/03/31 09:33:27;;;;;;;10.13;1.90;;;;;;;;;;4937627;28;20045;-80
2023/03/31 09:35:53;;;;;;;10.27;1.88;;;;;;;;;;4954173;28;20030;-81
2023/03/31 09:38:21;;;;;;;7.30;1.70;;;;;;;;;;4945736;28;20385;-80
2023/03/31 09:40:48;;;;;;;10.98;1.98;;;;;;;;;;4957826;28;20477;-81
2023/03/31 09:43:28;;;;;;;8.00;1.77;;;;;;;;;;4914673;28;20046;-79
2023/03/31 09:45:56;;;;;;;7.13;1.70;;;;;;;;;;4954575;28;20254;-80
2023/03/31 09:48:28;;;;;;;8.50;1.90;;;;;;;;;;4956700;28;20362;-81
2023/03/31 09:51:05;;;;;;;6.90;1.83;;;;;;;;;;4939952;28;20043;-80
2023/03/31 09:54:05;;;;;;;8.70;1.92;;;;;;;;;;4962672;28;20030;-82
2023/03/31 09:56:33;;;;;;;9.35;1.75;;;;;;;;;;4936970;28;20457;-81
2023/03/31 09:59:04;;;;;;;7.25;1.50;;;;;;;;;;4938840;28;20568;-78
2023/03/31 10:01:32;;;;;;;8.70;1.60;;;;;;;;;;4962266;28;20034;-79
2023/03/31 10:04:02;;;;;;;7.28;1.55;;;;;;;;;;4959413;28;20050;-79
2023/03/31 10:06:42;;;;;;;4.65;1.20;;;;;;;;;;4966239;28;20042;-80
2023/03/31 10:09:10;;;;;;;7.63;1.58;;;;;;;;;;4946056;28;20042;-80
2023/03/31 10:11:37;;;;;;;7.22;1.38;;;;;;;;;;4968359;28;20797;-80
2023/03/31 10:14:06;;;;;;;5.47;1.30;;;;;;;;;;4945800;28;20066;-80
2023/03/31 10:16:44;;;;;;;6.10;1.30;;;;;;;;;;4965436;28;20042;-80
2023/03/31 10:19:24;;;;;;;8.77;1.75;;;;;;;;;;4967741;28;20125;-80
2023/03/31 10:22:27;;;;;;;5.82;1.30;;;;;;;;;;4966046;28;20088;-79
2023/03/31 10:25:05;;;;;;;8.15;1.65;;;;;;;;;;4906398;29;20098;-80
2023/03/31 10:27:55;;;;;;;8.10;2.00;;;;;;;;;;4889725;29;20119;-79
2023/03/31 10:30:23;;;;;;;7.57;1.80;;;;;;;;;;4905728;29;20042;-79
2023/03/31 10:32:51;;;;;;;5.85;1.63;;;;;;;;;;4902609;29;20039;-80
2023/03/31 10:35:32;;;;;;;9.68;1.85;;;;;;;;;;4903559;29;20039;-79
2023/03/31 10:38:03;;;;;;;7.85;1.52;;;;;;;;;;4884330;29;20196;-80
2023/03/31 10:40:31;;;;;;;6.95;1.42;;;;;;;;;;4890720;29;20047;-80
2023/03/31 10:43:12;;;;;;;6.68;1.48;;;;;;;;;;4887031;29;20116;-80
2023/03/31 10:45:44;;;;;;;9.73;1.65;;;;;;;;;;4883558;29;20062;-79
2023/03/31 10:48:28;;;;;;;6.75;1.30;;;;;;;;;;4901922;29;20039;-80
2023/03/31 10:51:17;;;;;;;6.22;1.50;;;;;;;;;;4902230;29;20482;-79
2023/03/31 10:53:46;;;;;;;6.40;1.35;;;;;;;;;;4901697;28;20632;-80
2023/03/31 10:56:34;;;;;;;4.60;1.10;;;;;;;;;;4888867;29;20032;-80
2023/03/31 10:59:09;;;;;;;7.15;1.40;;;;;;;;;;4927139;28;20161;-80
2023/03/31 11:01:55;;;;;;;7.88;1.40;;;;;;;;;;4957429;28;20128;-80
2023/03/31 11:04:42;;;;;;;4.68;1.33;;;;;;;;;;4959357;28;20058;-80
2023/03/31 11:07:28;;;;;;;7.13;1.40;;;;;;;;;;4945311;28;20048;-81
2023/03/31 11:10:14;;;;;;;7.93;1.67;;;;;;;;;;4951757;28;20855;-75
2023/03/31 11:12:52;;;;;;;6.65;1.58;;;;;;;;;;4951036;28;20733;-75
2023/03/31 11:15:28;;;;;;;7.68;1.38;;;;;;;;;;4953644;28;20085;-75
2023/03/31 11:18:03;;;;;;;6.05;1.60;;;;;;;;;;4945401;28;20123;-76
2023/03/31 11:20:50;;;;;;;5.93;1.42;;;;;;;;;;4954465;28;20030;-75
2023/03/31 11:23:36;;;;;;;5.70;1.38;;;;;;;;;;4953956;28;20465;-76
2023/03/31 11:26:06;;;;;;;5.30;1.25;;;;;;;;;;4952246;28;20475;-75
2023/03/31 11:28:51;;;;;;;6.03;1.40;;;;;;;;;;4937794;28;20230;-78
2023/03/31 11:31:42;;;;;;;8.43;1.63;;;;;;;;;;4956010;28;20499;-78
2023/03/31 11:34:28;;;;;;;7.22;1.48;;;;;;;;;;4887833;28;21235;-77
2023/03/31 11:37:00;;;;;;;7.72;1.85;;;;;;;;;;4931530;28;20053;-78
2023/03/31 11:39:34;;;;;;;6.07;1.48;;;;;;;;;;4955122;28;20080;-77
2023/03/31 11:42:02;;;;;;;3.95;1.33;;;;;;;;;;4954866;28;20030;-79
2023/03/31 11:44:32;;;;;;;5.72;1.58;;;;;;;;;;4938280;28;20044;-77
2023/03/31 11:47:01;;;;;;;6.30;1.40;;;;;;;;;;4949752;28;20614;-75
2023/03/31 11:49:37;;;;;;;5.53;1.50;;;;;;;;;;4953631;28;20560;-75
2023/03/31 11:52:23;;;;;;;6.13;1.80;;;;;;;;;;4951954;28;20042;-75
2023/03/31 11:55:25;;;;;;;5.68;1.48;;;;;;;;;;4948550;28;20169;-76
2023/03/31 11:57:59;;;;;;;7.82;1.65;;;;;;;;;;4875677;29;20100;-75
2023/03/31 12:00:46;;;;;;;4.80;1.20;;;;;;;;;;4870744;29;20045;-75
2023/03/31 12:03:34;;;;;;;6.60;1.60;;;;;;;;;;4861587;29;20044;-75
2023/03/31 12:06:22;;;;;;;11.10;1.58;;;;;;;;;;4860134;29;20047;-75
2023/03/31 12:09:07;;;;;;;9.88;2.60;;;;;;;;;;4871356;29;20589;-77
2023/03/31 12:11:43;;;;;;;6.72;2.15;;;;;;;;;;4877668;29;20047;-77
2023/03/31 12:14:22;;;;;;;7.18;1.55;;;;;;;;;;4876942;29;20036;-77
2023/03/31 12:16:55;;;;;;;8.52;1.60;;;;;;;;;;4872081;29;20374;-76
2023/03/31 12:19:26;;;;;;;8.48;2.00;;;;;;;;;;4859849;29;20709;-77
2023/03/31 12:22:14;;;;;;;6.05;1.60;;;;;;;;;;4855445;29;20048;-78
2023/03/31 12:25:01;;;;;;;14.38;2.33;;;;;;;;;;4858529;29;20342;-79
2023/03/31 12:27:37;;;;;;;18.70;3.00;;;;;;;;;;4874954;29;20500;-78
2023/03/31 12:30:27;;;;;;;8.70;2.00;;;;;;;;;;4876106;29;20049;-77
2023/03/31 12:33:21;;;;;;;10.35;1.83;;;;;;;;;;4940293;28;20045;-76
2023/03/31 12:36:07;;;;;;;7.13;1.67;;;;;;;;;;4927727;28;20452;-76
2023/03/31 12:38:41;;;;;;;6.00;1.55;;;;;;;;;;4954687;28;20464;-77
2023/03/31 12:41:21;;;;;;;6.53;1.55;;;;;;;;;;4950187;28;20152;-75
2023/03/31 12:44:08;;;;;;;7.57;1.60;;;;;;;;;;4950624;28;20361;-74
2023/03/31 12:46:54;;;;;;;5.05;1.50;;;;;;;;;;4953174;28;20047;-73
2023/03/31 12:49:43;;;;;;;6.00;1.20;;;;;;;;;;4955357;28;20452;-75
2023/03/31 12:52:19;;;;;;;7.07;1.40;;;;;;;;;;4949952;28;20027;-76
2023/03/31 12:55:05;;;;;;;4.78;1.05;;;;;;;;;;4933761;28;20034;-77
2023/03/31 12:57:33;;;;;;;6.60;1.40;;;;;;;;;;4952388;28;20047;-78
2023/03/31 13:00:16;;;;;;;6.55;1.58;;;;;;;;;;4931240;28;20708;-77
2023/03/31 13:02:45;;;;;;;6.88;1.50;;;;;;;;;;4945087;28;20268;-78
2023/03/31 13:05:31;;;;;;;5.80;1.50;;;;;;;;;;4937360;28;20127;-78
2023/03/31 13:07:58;;;;;;;7.13;1.30;;;;;;;;;;4948029;28;20456;-78
2023/03/31 13:10:29;;;;;;;5.38;1.23;;;;;;;;;;4952461;28;20026;-77
2023/03/31 13:13:01;;;;;;;5.28;1.33;;;;;;;;;;4952239;28;20096;-78
2023/03/31 13:15:29;;;;;;;5.88;1.25;;;;;;;;;;4956776;28;20342;-83
2023/03/31 13:17:58;;;;;;;7.22;1.30;;;;;;;;;;4953743;28;20035;-83
2023/03/31 13:20:39;;;;;;;6.35;1.63;;;;;;;;;;4959688;28;20894;-81
2023/03/31 13:23:19;;;;;;;6.88;1.40;;;;;;;;;;4960660;28;20030;-81
2023/03/31 13:25:52;;;;;;;6.75;1.27;;;;;;;;;;4941924;28;20034;-81
2023/03/31 13:28:37;;;;;;;11.13;2.70;;;;;;;;;;4955097;28;20442;-81
2023/03/31 13:31:10;;;;;;;14.70;3.28;;;;;;;;;;4956380;28;20579;-80
2023/03/31 13:33:36;;;;;;;13.25;3.35;;;;;;;;;;4925659;28;20589;-80
2023/03/31 13:36:25;;;;;;;11.85;3.63;;;;;;;;;;4956935;28;20038;-79
2023/03/31 13:39:11;;;;;;;15.25;3.50;;;;;;;;;;4938919;28;20520;-80
2023/03/31 13:42:02;;;;;;;12.25;3.30;;;;;;;;;;4937167;28;20511;-81
2023/03/31 13:44:53;;;;;;;23.95;4.10;;;;;;;;;;4961055;28;20556;-80
2023/03/31 13:47:49;;;;;;;16.83;4.18;;;;;;;;;;4959636;28;21294;-80
2023/03/31 13:50:35;;;;;;;16.65;3.63;;;;;;;;;;4955604;28;20041;-80
2023/03/31 13:53:02;;;;;;;;;;;;;;;;;;4956209;28;20028;-80
2023/03/31 13:55:48;;;;;;;13.30;3.42;;;;;;;;;;4937543;28;19964;-80
2023/03/31 13:58:35;;;;;;;17.15;3.47;;;;;;;;;;4954950;28;20350;-79
2023/03/31 14:01:21;;;;;;;13.52;3.20;;;;;;;;;;4933573;28;20046;-80
2023/03/31 14:04:06;;;;;;;12.93;2.90;;;;;;;;;;4956953;28;24992;-81
2023/03/31 14:07:07;;;;;;;16.40;3.47;;;;;;;;;;4956748;28;20060;-81
2023/03/31 14:09:40;;;;;;;13.98;3.10;;;;;;;;;;4935105;28;20042;-81
2023/03/31 14:12:32;;;;;;;16.90;2.83;;;;;;;;;;4957035;28;20788;-80
2023/03/31 14:15:02;;;;;;;14.65;3.00;;;;;;;;;;4952351;28;20033;-80
2023/03/31 14:17:39;;;;;;;11.00;2.63;;;;;;;;;;4952655;28;20030;-81
2023/03/31 14:20:24;;;;;;;13.25;3.08;;;;;;;;;;4955625;28;20035;-80
2023/03/31 14:23:10;;;;;;;14.70;3.53;;;;;;;;;;4936108;28;20112;-81
2023/03/31 14:25:40;;;;;;;;;;;;;;;;;;4955777;28;20673;-81
2023/03/31 14:28:19;;;;;;;13.10;3.13;;;;;;;;;;4955687;28;20720;-81
2023/03/31 14:31:04;;;;;;;10.23;2.90;;;;;;;;;;4940954;28;20046;-80
2023/03/31 14:33:47;;;;;;;14.05;3.40;;;;;;;;;;4943132;28;20050;-80
2023/03/31 14:36:27;;;;;;;14.70;3.70;;;;;;;;;;4941509;28;20042;-80
2023/03/31 14:39:02;;;;;;;14.80;2.83;;;;;;;;;;4939460;28;20043;-81
2023/03/31 14:41:30;;;;;;;14.23;3.00;;;;;;;;;;4955323;28;20042;-81
2023/03/31 14:44:05;;;;;;;15.80;3.45;;;;;;;;;;4951675;28;20046;-81
2023/03/31 14:46:33;;;;;;;;;;;;;;;;;;4923469;28;20678;-81
2023/03/31 14:49:05;;;;;;;15.45;2.80;;;;;;;;;;4951727;28;20520;-81
2023/03/31 14:51:33;;;;;;;15.35;3.50;;;;;;;;;;4920626;28;20042;-81
2023/03/31 14:54:01;;;;;;;14.88;2.95;;;;;;;;;;4953429;28;20548;-80
2023/03/31 14:56:36;;;;;;;18.35;3.42;;;;;;;;;;4953327;28;20496;-79
2023/03/31 14:59:05;;;;;;;15.17;3.17;;;;;;;;;;4936663;28;20062;-80
2023/03/31 15:01:39;;;;;;;12.68;2.90;;;;;;;;;;4947872;28;20295;-81
2023/03/31 15:04:16;;;;;;;13.02;2.65;;;;;;;;;;4937414;28;20355;-79
2023/03/31 15:06:48;;;;;;;18.45;3.28;;;;;;;;;;4955509;28;20100;-80
2023/03/31 15:09:27;;;;;;;15.80;3.28;;;;;;;;;;4973523;28;20050;-79
2023/03/31 15:12:06;;;;;;;14.98;3.00;;;;;;;;;;4950876;28;20022;-79
2023/03/31 15:14:36;;;;;;;16.00;3.35;;;;;;;;;;4974835;28;20401;-81